sensor_id;sensor_type;location;lat;lon;timestamp;P1;durP1;ratioP1;P2;durP2;ratioP2
46551;SDS011;32278;51.810;4.712;2023-07-16T00:02:05;8.88;;;2.95;;
46551;SDS011;32278;51.810;4.712;2023-07-16T00:04:31;8.25;;;2.35;;
46551;SDS011;32278;51.810;4.712;2023-07-16T00:06:59;10.02;;;2.70;;
46551;SDS011;32278;51.810;4.712;2023-07-16T00:09:26;8.98;;;2.33;;
46551;SDS011;32278;51.810;4.712;2023-07-16T00:11:52;8.43;;;3.03;;
46551;SDS011;32278;51.810;4.712;2023-07-16T00:14:18;10.80;;;2.70;;
46551;SDS011;32278;51.810;4.712;2023-07-16T00:16:44;7.53;;;2.40;;
46551;SDS011;32278;51.810;4.712;2023-07-16T00:19:11;6.95;;;2.60;;
46551;SDS011;32278;51.810;4.712;2023-07-16T00:21:37;11.05;;;2.65;;
46551;SDS011;32278;51.810;4.712;2023-07-16T00:24:03;10.02;;;3.50;;
46551;SDS011;32278;51.810;4.712;2023-07-16T00:26:30;7.95;;;2.95;;
46551;SDS011;32278;51.810;4.712;2023-07-16T00:28:56;11.50;;;3.30;;
46551;SDS011;32278;51.810;4.712;2023-07-16T00:31:22;8.55;;;3.22;;
46551;SDS011;32278;51.810;4.712;2023-07-16T00:33:48;9.60;;;2.67;;
46551;SDS011;32278;51.810;4.712;2023-07-16T00:36:14;7.57;;;2.33;;
46551;SDS011;32278;51.810;4.712;2023-07-16T00:38:40;7.55;;;2.67;;
46551;SDS011;32278;51.810;4.712;2023-07-16T00:41:06;11.77;;;3.45;;
46551;SDS011;32278;51.810;4.712;2023-07-16T00:43:32;10.85;;;2.90;;
46551;SDS011;32278;51.810;4.712;2023-07-16T00:45:58;13.65;;;3.33;;
46551;SDS011;32278;51.810;4.712;2023-07-16T00:48:24;10.60;;;2.83;;
46551;SDS011;32278;51.810;4.712;2023-07-16T00:50:51;8.90;;;3.22;;
46551;SDS011;32278;51.810;4.712;2023-07-16T00:53:18;14.68;;;4.00;;
46551;SDS011;32278;51.810;4.712;2023-07-16T00:55:45;14.93;;;2.90;;
46551;SDS011;32278;51.810;4.712;2023-07-16T00:58:11;9.32;;;3.65;;
46551;SDS011;32278;51.810;4.712;2023-07-16T01:00:38;12.18;;;3.17;;
46551;SDS011;32278;51.810;4.712;2023-07-16T01:03:05;8.48;;;3.30;;
46551;SDS011;32278;51.810;4.712;2023-07-16T01:05:34;9.00;;;3.10;;
46551;SDS011;32278;51.810;4.712;2023-07-16T01:08:03;14.60;;;3.47;;
46551;SDS011;32278;51.810;4.712;2023-07-16T01:10:30;13.98;;;3.90;;
46551;SDS011;32278;51.810;4.712;2023-07-16T01:12:56;10.88;;;3.45;;
46551;SDS011;32278;51.810;4.712;2023-07-16T01:15:23;10.02;;;4.18;;
46551;SDS011;32278;51.810;4.712;2023-07-16T01:17:49;9.35;;;3.33;;
46551;SDS011;32278;51.810;4.712;2023-07-16T01:20:15;9.35;;;3.75;;
46551;SDS011;32278;51.810;4.712;2023-07-16T01:28:16;20.33;;;3.80;;
46551;SDS011;32278;51.810;4.712;2023-07-16T01:30:46;16.58;;;3.88;;
46551;SDS011;32278;51.810;4.712;2023-07-16T01:33:13;12.02;;;4.18;;
46551;SDS011;32278;51.810;4.712;2023-07-16T01:35:40;11.45;;;4.13;;
46551;SDS011;32278;51.810;4.712;2023-07-16T01:38:08;15.55;;;4.93;;
46551;SDS011;32278;51.810;4.712;2023-07-16T01:40:34;13.15;;;4.60;;
46551;SDS011;32278;51.810;4.712;2023-07-16T01:43:00;10.45;;;3.92;;
46551;SDS011;32278;51.810;4.712;2023-07-16T01:45:26;11.70;;;3.67;;
46551;SDS011;32278;51.810;4.712;2023-07-16T01:50:21;12.85;;;4.30;;
46551;SDS011;32278;51.810;4.712;2023-07-16T01:52:47;9.88;;;4.07;;
46551;SDS011;32278;51.810;4.712;2023-07-16T01:55:13;14.07;;;3.90;;
46551;SDS011;32278;51.810;4.712;2023-07-16T01:57:39;11.35;;;4.10;;
46551;SDS011;32278;51.810;4.712;2023-07-16T02:00:05;15.13;;;4.35;;
46551;SDS011;32278;51.810;4.712;2023-07-16T02:02:33;13.68;;;3.83;;
46551;SDS011;32278;51.810;4.712;2023-07-16T02:04:59;10.60;;;3.97;;
46551;SDS011;32278;51.810;4.712;2023-07-16T02:07:25;11.10;;;4.20;;
46551;SDS011;32278;51.810;4.712;2023-07-16T02:09:51;16.08;;;4.55;;
46551;SDS011;32278;51.810;4.712;2023-07-16T02:12:16;9.68;;;3.35;;
46551;SDS011;32278;51.810;4.712;2023-07-16T02:14:42;7.18;;;3.78;;
46551;SDS011;32278;51.810;4.712;2023-07-16T02:17:08;10.30;;;4.00;;
46551;SDS011;32278;51.810;4.712;2023-07-16T02:19:34;13.52;;;3.97;;
46551;SDS011;32278;51.810;4.712;2023-07-16T02:22:00;11.57;;;3.55;;
46551;SDS011;32278;51.810;4.712;2023-07-16T02:24:26;15.55;;;3.80;;
46551;SDS011;32278;51.810;4.712;2023-07-16T02:26:52;9.57;;;3.50;;
46551;SDS011;32278;51.810;4.712;2023-07-16T02:29:18;8.77;;;3.97;;
46551;SDS011;32278;51.810;4.712;2023-07-16T02:31:44;15.05;;;3.65;;
46551;SDS011;32278;51.810;4.712;2023-07-16T02:34:11;12.85;;;4.68;;
46551;SDS011;32278;51.810;4.712;2023-07-16T02:36:37;9.20;;;3.42;;
46551;SDS011;32278;51.810;4.712;2023-07-16T02:39:03;9.98;;;3.67;;
46551;SDS011;32278;51.810;4.712;2023-07-16T02:41:29;10.05;;;3.40;;
46551;SDS011;32278;51.810;4.712;2023-07-16T02:43:59;9.48;;;4.03;;
46551;SDS011;32278;51.810;4.712;2023-07-16T02:46:25;12.38;;;3.20;;
46551;SDS011;32278;51.810;4.712;2023-07-16T02:48:51;12.13;;;4.15;;
46551;SDS011;32278;51.810;4.712;2023-07-16T02:51:17;12.85;;;3.50;;
46551;SDS011;32278;51.810;4.712;2023-07-16T02:53:43;6.43;;;3.55;;
46551;SDS011;32278;51.810;4.712;2023-07-16T02:56:09;12.60;;;3.53;;
46551;SDS011;32278;51.810;4.712;2023-07-16T02:58:35;9.43;;;3.25;;
46551;SDS011;32278;51.810;4.712;2023-07-16T03:01:01;12.93;;;4.03;;
46551;SDS011;32278;51.810;4.712;2023-07-16T03:03:27;8.30;;;3.50;;
46551;SDS011;32278;51.810;4.712;2023-07-16T03:05:53;11.05;;;3.30;;
46551;SDS011;32278;51.810;4.712;2023-07-16T03:08:19;11.43;;;4.43;;
46551;SDS011;32278;51.810;4.712;2023-07-16T03:10:45;17.40;;;4.50;;
46551;SDS011;32278;51.810;4.712;2023-07-16T03:13:11;8.57;;;3.47;;
46551;SDS011;32278;51.810;4.712;2023-07-16T03:15:37;8.32;;;2.97;;
46551;SDS011;32278;51.810;4.712;2023-07-16T03:18:03;10.98;;;3.80;;
46551;SDS011;32278;51.810;4.712;2023-07-16T03:20:29;11.38;;;4.60;;
46551;SDS011;32278;51.810;4.712;2023-07-16T03:22:55;7.20;;;3.95;;
46551;SDS011;32278;51.810;4.712;2023-07-16T03:25:21;10.27;;;3.83;;
46551;SDS011;32278;51.810;4.712;2023-07-16T03:27:47;11.20;;;3.88;;
46551;SDS011;32278;51.810;4.712;2023-07-16T03:30:13;17.10;;;5.57;;
46551;SDS011;32278;51.810;4.712;2023-07-16T03:32:40;11.10;;;4.72;;
46551;SDS011;32278;51.810;4.712;2023-07-16T03:35:06;15.68;;;4.90;;
46551;SDS011;32278;51.810;4.712;2023-07-16T03:37:32;10.45;;;4.03;;
46551;SDS011;32278;51.810;4.712;2023-07-16T03:40:11;13.60;;;4.50;;
46551;SDS011;32278;51.810;4.712;2023-07-16T03:42:37;12.93;;;4.78;;
46551;SDS011;32278;51.810;4.712;2023-07-16T03:45:03;9.95;;;4.07;;
46551;SDS011;32278;51.810;4.712;2023-07-16T03:47:29;16.30;;;5.72;;
46551;SDS011;32278;51.810;4.712;2023-07-16T03:49:55;10.73;;;4.57;;
46551;SDS011;32278;51.810;4.712;2023-07-16T03:52:21;11.70;;;4.28;;
46551;SDS011;32278;51.810;4.712;2023-07-16T03:54:48;13.43;;;5.28;;
46551;SDS011;32278;51.810;4.712;2023-07-16T03:57:14;13.93;;;3.88;;
46551;SDS011;32278;51.810;4.712;2023-07-16T03:59:40;13.45;;;4.93;;
46551;SDS011;32278;51.810;4.712;2023-07-16T04:02:06;14.13;;;4.38;;
46551;SDS011;32278;51.810;4.712;2023-07-16T04:04:32;8.38;;;3.50;;
46551;SDS011;32278;51.810;4.712;2023-07-16T04:06:58;13.90;;;4.40;;
46551;SDS011;32278;51.810;4.712;2023-07-16T04:09:24;11.13;;;4.28;;
46551;SDS011;32278;51.810;4.712;2023-07-16T04:11:50;9.93;;;3.88;;
46551;SDS011;32278;51.810;4.712;2023-07-16T04:14:16;9.15;;;4.15;;
46551;SDS011;32278;51.810;4.712;2023-07-16T04:16:42;14.77;;;3.92;;
46551;SDS011;32278;51.810;4.712;2023-07-16T04:19:08;9.55;;;4.00;;
46551;SDS011;32278;51.810;4.712;2023-07-16T04:21:34;8.05;;;3.92;;
46551;SDS011;32278;51.810;4.712;2023-07-16T04:24:01;12.20;;;4.60;;
46551;SDS011;32278;51.810;4.712;2023-07-16T04:26:27;18.15;;;4.68;;
46551;SDS011;32278;51.810;4.712;2023-07-16T04:28:53;11.18;;;3.88;;
46551;SDS011;32278;51.810;4.712;2023-07-16T04:31:19;11.98;;;4.45;;
46551;SDS011;32278;51.810;4.712;2023-07-16T04:33:45;11.63;;;3.97;;
46551;SDS011;32278;51.810;4.712;2023-07-16T04:36:12;14.00;;;4.03;;
46551;SDS011;32278;51.810;4.712;2023-07-16T04:38:38;9.30;;;4.15;;
46551;SDS011;32278;51.810;4.712;2023-07-16T04:41:04;9.48;;;4.00;;
46551;SDS011;32278;51.810;4.712;2023-07-16T04:43:30;16.55;;;5.10;;
46551;SDS011;32278;51.810;4.712;2023-07-16T04:45:56;12.65;;;4.47;;
46551;SDS011;32278;51.810;4.712;2023-07-16T04:48:22;8.75;;;4.43;;
46551;SDS011;32278;51.810;4.712;2023-07-16T04:50:48;11.88;;;5.00;;
46551;SDS011;32278;51.810;4.712;2023-07-16T04:53:17;13.32;;;5.40;;
46551;SDS011;32278;51.810;4.712;2023-07-16T04:55:43;13.45;;;4.78;;
46551;SDS011;32278;51.810;4.712;2023-07-16T04:58:11;21.58;;;5.22;;
46551;SDS011;32278;51.810;4.712;2023-07-16T05:00:37;12.88;;;5.10;;
46551;SDS011;32278;51.810;4.712;2023-07-16T05:03:03;14.23;;;5.07;;
46551;SDS011;32278;51.810;4.712;2023-07-16T05:05:29;9.27;;;4.63;;
46551;SDS011;32278;51.810;4.712;2023-07-16T05:07:55;8.82;;;4.55;;
46551;SDS011;32278;51.810;4.712;2023-07-16T05:10:21;15.45;;;4.80;;
46551;SDS011;32278;51.810;4.712;2023-07-16T05:12:47;10.43;;;4.57;;
46551;SDS011;32278;51.810;4.712;2023-07-16T05:15:13;10.43;;;4.50;;
46551;SDS011;32278;51.810;4.712;2023-07-16T05:17:39;9.32;;;4.45;;
46551;SDS011;32278;51.810;4.712;2023-07-16T05:20:05;10.82;;;4.63;;
46551;SDS011;32278;51.810;4.712;2023-07-16T05:22:32;13.90;;;4.90;;
46551;SDS011;32278;51.810;4.712;2023-07-16T05:24:58;16.50;;;5.30;;
46551;SDS011;32278;51.810;4.712;2023-07-16T05:27:24;13.30;;;4.80;;
46551;SDS011;32278;51.810;4.712;2023-07-16T05:29:50;10.10;;;4.80;;
46551;SDS011;32278;51.810;4.712;2023-07-16T05:32:16;11.10;;;4.80;;
46551;SDS011;32278;51.810;4.712;2023-07-16T05:34:42;9.13;;;4.93;;
46551;SDS011;32278;51.810;4.712;2023-07-16T05:37:08;15.60;;;4.97;;
46551;SDS011;32278;51.810;4.712;2023-07-16T05:39:34;9.15;;;4.85;;
46551;SDS011;32278;51.810;4.712;2023-07-16T05:42:00;9.25;;;5.15;;
46551;SDS011;32278;51.810;4.712;2023-07-16T05:44:29;12.70;;;5.43;;
46551;SDS011;32278;51.810;4.712;2023-07-16T05:46:55;11.38;;;5.88;;
46551;SDS011;32278;51.810;4.712;2023-07-16T05:49:21;11.13;;;6.05;;
46551;SDS011;32278;51.810;4.712;2023-07-16T05:51:47;11.05;;;5.32;;
46551;SDS011;32278;51.810;4.712;2023-07-16T05:54:13;11.88;;;5.35;;
46551;SDS011;32278;51.810;4.712;2023-07-16T05:56:39;10.85;;;5.13;;
46551;SDS011;32278;51.810;4.712;2023-07-16T05:59:05;12.63;;;5.90;;
46551;SDS011;32278;51.810;4.712;2023-07-16T06:01:31;19.90;;;6.18;;
46551;SDS011;32278;51.810;4.712;2023-07-16T06:03:57;13.15;;;5.10;;
46551;SDS011;32278;51.810;4.712;2023-07-16T06:06:23;16.35;;;5.95;;
46551;SDS011;32278;51.810;4.712;2023-07-16T06:08:49;16.83;;;6.13;;
46551;SDS011;32278;51.810;4.712;2023-07-16T06:11:15;11.93;;;5.40;;
46551;SDS011;32278;51.810;4.712;2023-07-16T06:13:41;13.13;;;5.85;;
46551;SDS011;32278;51.810;4.712;2023-07-16T06:16:07;11.88;;;5.90;;
46551;SDS011;32278;51.810;4.712;2023-07-16T06:18:33;9.98;;;5.50;;
46551;SDS011;32278;51.810;4.712;2023-07-16T06:20:59;23.58;;;7.35;;
46551;SDS011;32278;51.810;4.712;2023-07-16T06:23:25;14.75;;;5.30;;
46551;SDS011;32278;51.810;4.712;2023-07-16T06:25:55;12.52;;;5.85;;
46551;SDS011;32278;51.810;4.712;2023-07-16T06:28:21;9.38;;;5.25;;
46551;SDS011;32278;51.810;4.712;2023-07-16T06:30:47;12.05;;;5.85;;
46551;SDS011;32278;51.810;4.712;2023-07-16T06:33:13;16.98;;;5.72;;
46551;SDS011;32278;51.810;4.712;2023-07-16T06:35:39;13.63;;;6.75;;
46551;SDS011;32278;51.810;4.712;2023-07-16T06:38:05;11.35;;;6.05;;
46551;SDS011;32278;51.810;4.712;2023-07-16T06:40:31;9.73;;;5.50;;
46551;SDS011;32278;51.810;4.712;2023-07-16T06:42:57;10.73;;;5.47;;
46551;SDS011;32278;51.810;4.712;2023-07-16T06:45:23;9.52;;;5.93;;
46551;SDS011;32278;51.810;4.712;2023-07-16T06:47:49;11.93;;;5.40;;
46551;SDS011;32278;51.810;4.712;2023-07-16T06:50:15;14.40;;;5.53;;
46551;SDS011;32278;51.810;4.712;2023-07-16T06:52:41;14.07;;;5.55;;
46551;SDS011;32278;51.810;4.712;2023-07-16T06:55:07;14.13;;;5.45;;
46551;SDS011;32278;51.810;4.712;2023-07-16T06:57:33;10.65;;;5.25;;
46551;SDS011;32278;51.810;4.712;2023-07-16T06:59:59;13.00;;;5.35;;
46551;SDS011;32278;51.810;4.712;2023-07-16T07:02:25;15.80;;;5.88;;
46551;SDS011;32278;51.810;4.712;2023-07-16T07:04:51;12.15;;;5.68;;
46551;SDS011;32278;51.810;4.712;2023-07-16T07:07:17;14.63;;;6.20;;
46551;SDS011;32278;51.810;4.712;2023-07-16T07:09:43;12.68;;;5.43;;
46551;SDS011;32278;51.810;4.712;2023-07-16T07:12:09;10.18;;;4.72;;
46551;SDS011;32278;51.810;4.712;2023-07-16T07:14:34;15.55;;;5.88;;
46551;SDS011;32278;51.810;4.712;2023-07-16T07:17:00;12.02;;;5.65;;
46551;SDS011;32278;51.810;4.712;2023-07-16T07:19:26;20.90;;;6.05;;
46551;SDS011;32278;51.810;4.712;2023-07-16T07:21:52;11.88;;;6.00;;
46551;SDS011;32278;51.810;4.712;2023-07-16T07:24:18;16.90;;;6.13;;
46551;SDS011;32278;51.810;4.712;2023-07-16T07:26:44;15.43;;;6.50;;
46551;SDS011;32278;51.810;4.712;2023-07-16T07:29:10;16.73;;;6.28;;
46551;SDS011;32278;51.810;4.712;2023-07-16T07:31:36;12.05;;;5.88;;
46551;SDS011;32278;51.810;4.712;2023-07-16T07:34:02;14.98;;;5.82;;
46551;SDS011;32278;51.810;4.712;2023-07-16T07:36:28;14.15;;;5.60;;
46551;SDS011;32278;51.810;4.712;2023-07-16T07:38:54;13.57;;;6.53;;
46551;SDS011;32278;51.810;4.712;2023-07-16T07:41:20;12.02;;;5.25;;
46551;SDS011;32278;51.810;4.712;2023-07-16T07:43:46;12.18;;;5.57;;
46551;SDS011;32278;51.810;4.712;2023-07-16T07:46:12;14.48;;;5.93;;
46551;SDS011;32278;51.810;4.712;2023-07-16T07:48:38;15.93;;;6.38;;
46551;SDS011;32278;51.810;4.712;2023-07-16T07:51:04;14.80;;;6.15;;
46551;SDS011;32278;51.810;4.712;2023-07-16T07:53:30;20.20;;;6.82;;
46551;SDS011;32278;51.810;4.712;2023-07-16T07:55:56;14.35;;;6.20;;
46551;SDS011;32278;51.810;4.712;2023-07-16T07:58:22;17.88;;;6.22;;
46551;SDS011;32278;51.810;4.712;2023-07-16T08:00:48;13.50;;;6.50;;
46551;SDS011;32278;51.810;4.712;2023-07-16T08:03:14;16.70;;;6.65;;
46551;SDS011;32278;51.810;4.712;2023-07-16T08:05:40;21.20;;;6.47;;
46551;SDS011;32278;51.810;4.712;2023-07-16T08:08:06;14.50;;;7.07;;
46551;SDS011;32278;51.810;4.712;2023-07-16T08:10:32;17.95;;;5.93;;
46551;SDS011;32278;51.810;4.712;2023-07-16T08:12:58;16.98;;;6.43;;
46551;SDS011;32278;51.810;4.712;2023-07-16T08:15:24;13.70;;;6.28;;
46551;SDS011;32278;51.810;4.712;2023-07-16T08:17:50;11.23;;;6.05;;
46551;SDS011;32278;51.810;4.712;2023-07-16T08:20:16;13.68;;;6.03;;
46551;SDS011;32278;51.810;4.712;2023-07-16T08:22:42;12.48;;;6.10;;
46551;SDS011;32278;51.810;4.712;2023-07-16T08:25:07;13.25;;;5.95;;
46551;SDS011;32278;51.810;4.712;2023-07-16T08:27:34;15.57;;;5.18;;
46551;SDS011;32278;51.810;4.712;2023-07-16T08:30:00;12.30;;;6.88;;
46551;SDS011;32278;51.810;4.712;2023-07-16T08:32:26;10.63;;;5.20;;
46551;SDS011;32278;51.810;4.712;2023-07-16T08:34:52;17.10;;;6.55;;
46551;SDS011;32278;51.810;4.712;2023-07-16T08:37:18;11.10;;;5.43;;
46551;SDS011;32278;51.810;4.712;2023-07-16T08:39:44;16.65;;;5.63;;
46551;SDS011;32278;51.810;4.712;2023-07-16T08:42:10;14.75;;;6.18;;
46551;SDS011;32278;51.810;4.712;2023-07-16T08:44:37;18.48;;;6.07;;
46551;SDS011;32278;51.810;4.712;2023-07-16T08:47:04;13.10;;;6.10;;
46551;SDS011;32278;51.810;4.712;2023-07-16T08:49:31;13.38;;;5.82;;
46551;SDS011;32278;51.810;4.712;2023-07-16T08:51:59;13.75;;;5.32;;
46551;SDS011;32278;51.810;4.712;2023-07-16T08:54:26;16.10;;;6.03;;
46551;SDS011;32278;51.810;4.712;2023-07-16T08:56:52;9.77;;;5.78;;
46551;SDS011;32278;51.810;4.712;2023-07-16T08:59:18;11.98;;;5.38;;
46551;SDS011;32278;51.810;4.712;2023-07-16T09:01:47;11.38;;;5.85;;
46551;SDS011;32278;51.810;4.712;2023-07-16T09:04:13;15.25;;;5.43;;
46551;SDS011;32278;51.810;4.712;2023-07-16T09:06:40;12.35;;;5.35;;
46551;SDS011;32278;51.810;4.712;2023-07-16T09:09:06;14.38;;;5.97;;
46551;SDS011;32278;51.810;4.712;2023-07-16T09:11:32;16.50;;;5.63;;
46551;SDS011;32278;51.810;4.712;2023-07-16T09:14:01;12.50;;;5.68;;
46551;SDS011;32278;51.810;4.712;2023-07-16T09:16:31;10.73;;;5.20;;
46551;SDS011;32278;51.810;4.712;2023-07-16T09:19:04;18.02;;;6.32;;
46551;SDS011;32278;51.810;4.712;2023-07-16T09:21:30;12.60;;;6.13;;
46551;SDS011;32278;51.810;4.712;2023-07-16T09:23:59;14.10;;;6.22;;
46551;SDS011;32278;51.810;4.712;2023-07-16T09:26:25;14.18;;;6.22;;
46551;SDS011;32278;51.810;4.712;2023-07-16T09:28:51;17.45;;;5.18;;
46551;SDS011;32278;51.810;4.712;2023-07-16T09:31:17;14.63;;;5.80;;
46551;SDS011;32278;51.810;4.712;2023-07-16T09:33:46;12.30;;;5.80;;
46551;SDS011;32278;51.810;4.712;2023-07-16T09:36:12;13.15;;;5.07;;
46551;SDS011;32278;51.810;4.712;2023-07-16T09:38:38;11.85;;;5.07;;
46551;SDS011;32278;51.810;4.712;2023-07-16T09:41:04;13.32;;;5.70;;
46551;SDS011;32278;51.810;4.712;2023-07-16T09:43:31;14.40;;;6.03;;
46551;SDS011;32278;51.810;4.712;2023-07-16T09:45:58;10.75;;;4.97;;
46551;SDS011;32278;51.810;4.712;2023-07-16T09:48:24;9.90;;;4.90;;
46551;SDS011;32278;51.810;4.712;2023-07-16T09:50:51;17.50;;;6.13;;
46551;SDS011;32278;51.810;4.712;2023-07-16T09:53:18;12.13;;;4.63;;
46551;SDS011;32278;51.810;4.712;2023-07-16T09:55:45;11.35;;;5.00;;
46551;SDS011;32278;51.810;4.712;2023-07-16T09:58:11;14.77;;;5.63;;
46551;SDS011;32278;51.810;4.712;2023-07-16T10:00:38;12.75;;;5.35;;
46551;SDS011;32278;51.810;4.712;2023-07-16T10:03:06;9.70;;;4.97;;
46551;SDS011;32278;51.810;4.712;2023-07-16T10:05:35;10.85;;;5.63;;
46551;SDS011;32278;51.810;4.712;2023-07-16T10:08:01;13.45;;;5.72;;
46551;SDS011;32278;51.810;4.712;2023-07-16T10:10:40;9.88;;;4.85;;
46551;SDS011;32278;51.810;4.712;2023-07-16T10:13:06;11.90;;;4.68;;
46551;SDS011;32278;51.810;4.712;2023-07-16T10:15:33;8.52;;;4.95;;
46551;SDS011;32278;51.810;4.712;2023-07-16T10:17:59;9.35;;;4.75;;
46551;SDS011;32278;51.810;4.712;2023-07-16T10:22:55;10.73;;;4.65;;
46551;SDS011;32278;51.810;4.712;2023-07-16T10:27:47;8.77;;;4.20;;
46551;SDS011;32278;51.810;4.712;2023-07-16T10:30:13;8.95;;;4.00;;
46551;SDS011;32278;51.810;4.712;2023-07-16T10:32:40;9.88;;;3.75;;
46551;SDS011;32278;51.810;4.712;2023-07-16T10:35:06;7.53;;;3.67;;
46551;SDS011;32278;51.810;4.712;2023-07-16T10:37:33;10.05;;;4.10;;
46551;SDS011;32278;51.810;4.712;2023-07-16T10:40:00;13.27;;;4.50;;
46551;SDS011;32278;51.810;4.712;2023-07-16T10:42:26;9.10;;;4.53;;
46551;SDS011;32278;51.810;4.712;2023-07-16T10:45:00;11.82;;;4.47;;
46551;SDS011;32278;51.810;4.712;2023-07-16T10:52:24;8.40;;;4.45;;
46551;SDS011;32278;51.810;4.712;2023-07-16T10:54:50;9.68;;;5.05;;
46551;SDS011;32278;51.810;4.712;2023-07-16T10:57:19;9.88;;;3.92;;
46551;SDS011;32278;51.810;4.712;2023-07-16T10:59:45;4.68;;;3.10;;
46551;SDS011;32278;51.810;4.712;2023-07-16T11:02:13;10.15;;;4.15;;
46551;SDS011;32278;51.810;4.712;2023-07-16T11:04:40;6.60;;;3.10;;
46551;SDS011;32278;51.810;4.712;2023-07-16T11:07:09;7.82;;;2.75;;
46551;SDS011;32278;51.810;4.712;2023-07-16T11:12:09;7.15;;;2.70;;
46551;SDS011;32278;51.810;4.712;2023-07-16T11:14:35;5.18;;;2.42;;
46551;SDS011;32278;51.810;4.712;2023-07-16T11:17:07;3.13;;;1.90;;
46551;SDS011;32278;51.810;4.712;2023-07-16T11:19:34;6.05;;;2.33;;
46551;SDS011;32278;51.810;4.712;2023-07-16T11:22:01;4.45;;;2.20;;
46551;SDS011;32278;51.810;4.712;2023-07-16T11:24:28;3.45;;;2.03;;
46551;SDS011;32278;51.810;4.712;2023-07-16T11:26:54;10.15;;;2.78;;
46551;SDS011;32278;51.810;4.712;2023-07-16T11:29:24;4.82;;;2.60;;
46551;SDS011;32278;51.810;4.712;2023-07-16T11:31:50;6.18;;;2.35;;
46551;SDS011;32278;51.810;4.712;2023-07-16T11:34:17;5.18;;;2.40;;
46551;SDS011;32278;51.810;4.712;2023-07-16T11:36:44;6.95;;;1.75;;
46551;SDS011;32278;51.810;4.712;2023-07-16T11:39:11;4.32;;;1.90;;
46551;SDS011;32278;51.810;4.712;2023-07-16T11:41:37;7.53;;;2.65;;
46551;SDS011;32278;51.810;4.712;2023-07-16T11:44:03;6.43;;;1.75;;
46551;SDS011;32278;51.810;4.712;2023-07-16T11:46:32;4.05;;;1.90;;
46551;SDS011;32278;51.810;4.712;2023-07-16T11:48:59;6.97;;;1.85;;
46551;SDS011;32278;51.810;4.712;2023-07-16T11:51:25;8.73;;;1.83;;
46551;SDS011;32278;51.810;4.712;2023-07-16T11:53:51;2.10;;;1.60;;
46551;SDS011;32278;51.810;4.712;2023-07-16T11:56:16;5.45;;;2.08;;
46551;SDS011;32278;51.810;4.712;2023-07-16T11:58:43;6.18;;;1.90;;
46551;SDS011;32278;51.810;4.712;2023-07-16T12:01:09;6.00;;;1.65;;
46551;SDS011;32278;51.810;4.712;2023-07-16T12:03:35;3.97;;;1.60;;
46551;SDS011;32278;51.810;4.712;2023-07-16T12:06:01;5.15;;;1.98;;
46551;SDS011;32278;51.810;4.712;2023-07-16T12:08:26;6.05;;;1.60;;
46551;SDS011;32278;51.810;4.712;2023-07-16T12:10:52;6.45;;;2.28;;
46551;SDS011;32278;51.810;4.712;2023-07-16T12:13:19;6.43;;;1.20;;
46551;SDS011;32278;51.810;4.712;2023-07-16T12:15:45;4.28;;;1.48;;
46551;SDS011;32278;51.810;4.712;2023-07-16T12:18:11;7.68;;;1.40;;
46551;SDS011;32278;51.810;4.712;2023-07-16T12:20:37;3.85;;;1.80;;
46551;SDS011;32278;51.810;4.712;2023-07-16T12:23:03;3.28;;;1.10;;
46551;SDS011;32278;51.810;4.712;2023-07-16T12:25:29;5.22;;;1.38;;
46551;SDS011;32278;51.810;4.712;2023-07-16T12:27:55;5.43;;;1.35;;
46551;SDS011;32278;51.810;4.712;2023-07-16T12:30:22;3.03;;;1.50;;
46551;SDS011;32278;51.810;4.712;2023-07-16T12:32:48;5.10;;;1.45;;
46551;SDS011;32278;51.810;4.712;2023-07-16T12:35:14;6.00;;;1.60;;
46551;SDS011;32278;51.810;4.712;2023-07-16T12:37:40;4.88;;;1.63;;
46551;SDS011;32278;51.810;4.712;2023-07-16T12:40:06;9.43;;;2.08;;
46551;SDS011;32278;51.810;4.712;2023-07-16T12:42:32;5.45;;;1.73;;
46551;SDS011;32278;51.810;4.712;2023-07-16T12:44:58;9.57;;;2.08;;
46551;SDS011;32278;51.810;4.712;2023-07-16T12:47:24;5.93;;;1.35;;
46551;SDS011;32278;51.810;4.712;2023-07-16T12:49:50;3.22;;;1.50;;
46551;SDS011;32278;51.810;4.712;2023-07-16T12:52:16;10.07;;;1.67;;
46551;SDS011;32278;51.810;4.712;2023-07-16T12:54:42;7.20;;;1.95;;
46551;SDS011;32278;51.810;4.712;2023-07-16T12:57:08;4.88;;;1.25;;
46551;SDS011;32278;51.810;4.712;2023-07-16T12:59:34;5.57;;;1.45;;
46551;SDS011;32278;51.810;4.712;2023-07-16T13:02:00;2.88;;;1.17;;
46551;SDS011;32278;51.810;4.712;2023-07-16T13:04:27;7.47;;;1.30;;
46551;SDS011;32278;51.810;4.712;2023-07-16T13:06:53;9.57;;;2.20;;
46551;SDS011;32278;51.810;4.712;2023-07-16T13:09:19;2.28;;;1.10;;
46551;SDS011;32278;51.810;4.712;2023-07-16T13:11:45;6.85;;;1.23;;
46551;SDS011;32278;51.810;4.712;2023-07-16T13:14:11;6.13;;;1.20;;
46551;SDS011;32278;51.810;4.712;2023-07-16T13:16:37;6.95;;;1.67;;
46551;SDS011;32278;51.810;4.712;2023-07-16T13:19:03;4.68;;;1.27;;
46551;SDS011;32278;51.810;4.712;2023-07-16T13:21:29;4.95;;;1.50;;
46551;SDS011;32278;51.810;4.712;2023-07-16T13:23:55;3.15;;;0.98;;
46551;SDS011;32278;51.810;4.712;2023-07-16T13:26:21;3.60;;;1.40;;
46551;SDS011;32278;51.810;4.712;2023-07-16T13:28:47;11.68;;;2.33;;
46551;SDS011;32278;51.810;4.712;2023-07-16T13:31:13;3.47;;;1.48;;
46551;SDS011;32278;51.810;4.712;2023-07-16T13:33:39;2.63;;;1.30;;
46551;SDS011;32278;51.810;4.712;2023-07-16T13:36:05;6.40;;;1.65;;
46551;SDS011;32278;51.810;4.712;2023-07-16T13:38:31;4.78;;;1.65;;
46551;SDS011;32278;51.810;4.712;2023-07-16T13:40:57;8.57;;;1.35;;
46551;SDS011;32278;51.810;4.712;2023-07-16T13:43:23;5.72;;;1.25;;
46551;SDS011;32278;51.810;4.712;2023-07-16T13:45:49;5.72;;;1.52;;
46551;SDS011;32278;51.810;4.712;2023-07-16T13:48:15;6.38;;;1.63;;
46551;SDS011;32278;51.810;4.712;2023-07-16T13:50:41;4.25;;;1.27;;
46551;SDS011;32278;51.810;4.712;2023-07-16T13:53:07;2.95;;;1.20;;
46551;SDS011;32278;51.810;4.712;2023-07-16T13:55:32;5.22;;;1.25;;
46551;SDS011;32278;51.810;4.712;2023-07-16T13:57:59;2.72;;;1.38;;
46551;SDS011;32278;51.810;4.712;2023-07-16T14:00:25;4.47;;;1.38;;
46551;SDS011;32278;51.810;4.712;2023-07-16T14:02:51;4.25;;;1.20;;
46551;SDS011;32278;51.810;4.712;2023-07-16T14:05:17;5.75;;;1.50;;
46551;SDS011;32278;51.810;4.712;2023-07-16T14:07:44;3.67;;;1.63;;
46551;SDS011;32278;51.810;4.712;2023-07-16T14:10:10;5.30;;;1.65;;
46551;SDS011;32278;51.810;4.712;2023-07-16T14:12:36;6.13;;;2.55;;
46551;SDS011;32278;51.810;4.712;2023-07-16T14:15:02;4.05;;;1.15;;
46551;SDS011;32278;51.810;4.712;2023-07-16T14:17:28;3.17;;;1.50;;
46551;SDS011;32278;51.810;4.712;2023-07-16T14:19:54;7.20;;;1.60;;
46551;SDS011;32278;51.810;4.712;2023-07-16T14:22:20;3.15;;;1.42;;
46551;SDS011;32278;51.810;4.712;2023-07-16T14:24:49;5.70;;;1.67;;
46551;SDS011;32278;51.810;4.712;2023-07-16T14:27:16;4.97;;;1.35;;
46551;SDS011;32278;51.810;4.712;2023-07-16T14:29:44;5.90;;;1.23;;
46551;SDS011;32278;51.810;4.712;2023-07-16T14:32:10;5.72;;;2.05;;
46551;SDS011;32278;51.810;4.712;2023-07-16T14:34:36;4.93;;;1.48;;
46551;SDS011;32278;51.810;4.712;2023-07-16T14:37:02;6.55;;;1.50;;
46551;SDS011;32278;51.810;4.712;2023-07-16T14:39:29;6.47;;;1.60;;
46551;SDS011;32278;51.810;4.712;2023-07-16T14:41:55;4.40;;;1.73;;
46551;SDS011;32278;51.810;4.712;2023-07-16T14:44:21;4.97;;;1.13;;
46551;SDS011;32278;51.810;4.712;2023-07-16T14:46:47;5.05;;;1.88;;
46551;SDS011;32278;51.810;4.712;2023-07-16T14:49:13;5.20;;;1.67;;
46551;SDS011;32278;51.810;4.712;2023-07-16T14:51:38;6.93;;;2.05;;
46551;SDS011;32278;51.810;4.712;2023-07-16T14:54:05;4.03;;;1.35;;
46551;SDS011;32278;51.810;4.712;2023-07-16T14:56:32;6.82;;;1.58;;